Aurora, IL

8:16 PM CDT on May 05, 2015 (GMT -0500)
Lewis University | | Change Station
CLOSE
Current Station
Airport
Location: Romeoville,
Elevation: 673 ft
Nearby Weather Stations

Elev 673 ft 41.60 °N, 88.10 °W | Updated 21 minutes ago

Mostly Cloudy
Mostly Cloudy
54 °F
Feels Like 54 °F
N
10
Wind Variable Wind from NE

Today
High -- | Low -- °F
--% Chance of Precip.
Yesterday
High -- | Low -- °F
Precip. -- in
5:44 AM 7:55 PM
Waning Gibbous, 96% visible
Pressure 30.19 in
Visibility 3.0 miles
Clouds Overcast 600 ft
Dew Point 52 °F
Humidity 93%
Rainfall 1.29 in
Snow Depth Not available.
UV 0 out of 12
Pollen .60 out of 12
Air Quality Not available.
Flu Activity Local Activity
METAR KLOT 060055Z AUTO 05009KT 3SM BR OVC006 12/11 A3019 RMK AO2 T01200109

More Conditions Fewer Conditions

Pressure 30.19 in
Visibility 3.0 miles
Clouds Overcast 600 ft
Dew Point 52 °F
Humidity 93%
Rainfall 1.29 in
Snow Depth Not available.
UV 0 out of 12
Pollen .60 out of 12
Air Quality Not available.
Flu Activity Local Activity
METAR KLOT 060055Z AUTO 05009KT 3SM BR OVC006 12/11 A3019 RMK AO2 T01200109

More Conditions Fewer Conditions

10-Day Weather Forecast

Almanac

Astronomy

May. 05, 2015 Rise Set
Actual Time
Civil Twilight
Nautical Twilight
Astronomical Twilight
Moon
Length of Visible Light
Length of Day
Tomorrow will be .
, % of the Moon is Illuminated

Today's Extremes

State Highs State Lows

Community

WunderPhotos

Upload Photos

1,819,030 photos uploaded!

WunderBlogs® & News

Nearby

Air Quality

  Air Quality AQ Index Pollutant
Not available.

Snow Depth

Station Depth Elevation

Earthquake Activity

City Distance Mag. Time & Date
Minimum magnitude displayed is 2.5.

Coastal Water Temperatures

Place Temperature

Stations

Nearby Weather Stations

Station Location Temp. Windchill Dew Point Humidity Wind Precip. Elev Updated Type